createdAt,value
2024-03-09T00:00:46.725Z,0.27
2024-03-09T00:03:14.637Z,0.32
2024-03-09T00:05:42.199Z,0.36
2024-03-09T00:08:10.820Z,0.37
2024-03-09T00:10:38.662Z,0.37
2024-03-09T00:13:05.920Z,0.33
2024-03-09T00:15:32.990Z,0.29
2024-03-09T00:17:59.990Z,0.20
2024-03-09T00:20:36.562Z,0.32
2024-03-09T00:23:07.601Z,0.34
2024-03-09T00:25:35.809Z,0.31
2024-03-09T00:28:02.800Z,0.31
2024-03-09T00:30:33.382Z,0.33
2024-03-09T00:33:02.350Z,0.32
2024-03-09T00:35:31.848Z,0.29
2024-03-09T00:38:00.416Z,0.26
2024-03-09T00:40:32.467Z,0.24
2024-03-09T00:43:07.209Z,0.25
2024-03-09T00:45:35.150Z,0.24
2024-03-09T00:48:04.632Z,0.26
2024-03-09T00:50:32.416Z,0.28
2024-03-09T00:52:59.317Z,0.24
2024-03-09T00:55:26.784Z,0.18
2024-03-09T00:57:55.550Z,0.18
2024-03-09T01:00:25.524Z,0.19
2024-03-09T01:02:53.552Z,0.22
2024-03-09T01:05:21.570Z,0.24
2024-03-09T01:07:51.247Z,0.27
2024-03-09T01:10:18.446Z,0.33
2024-03-09T01:12:45.394Z,0.33
2024-03-09T01:15:12.433Z,0.33
2024-03-09T01:17:40.045Z,0.32
2024-03-09T01:20:09.022Z,0.27
2024-03-09T01:22:37.482Z,0.23
2024-03-09T01:25:05.259Z,0.19
2024-03-09T01:27:32.168Z,0.16
2024-03-09T01:30:02.394Z,0.17
2024-03-09T01:32:30.068Z,0.12
2024-03-09T01:34:58.227Z,0.10
2024-03-09T01:37:26.404Z,0.08
2024-03-09T01:39:53.672Z,0.04
2024-03-09T01:42:22.969Z,0.00
2024-03-09T01:44:51.787Z,0.00
2024-03-09T01:47:27.715Z,0.04
2024-03-09T01:49:55.245Z,0.08
2024-03-09T01:52:25.102Z,0.08
2024-03-09T01:54:55.193Z,0.05
2024-03-09T01:57:23.230Z,-0.03
2024-03-09T01:59:56.606Z,-0.04
2024-03-09T02:02:24.493Z,-0.10
2024-03-09T02:04:52.836Z,-0.16
2024-03-09T02:07:20.442Z,-0.16
2024-03-09T02:09:49.594Z,-0.16
2024-03-09T02:12:18.705Z,-0.16
2024-03-09T02:14:46.546Z,-0.14
2024-03-09T02:17:15.437Z,-0.09
2024-03-09T02:19:43.349Z,-0.05
2024-03-09T02:22:13.111Z,0.01
2024-03-09T02:24:42.874Z,0.02
2024-03-09T02:27:11.198Z,0.01
2024-03-09T02:29:39.484Z,-0.01
2024-03-09T02:32:08.668Z,-0.02
2024-03-09T02:34:36.516Z,-0.01
2024-03-09T02:37:04.759Z,0.01
2024-03-09T02:39:32.348Z,0.03
2024-03-09T02:42:00.157Z,0.01
2024-03-09T02:44:30.841Z,-0.04
2024-03-09T02:46:58.078Z,-0.10
2024-03-09T02:49:27.863Z,-0.14
2024-03-09T02:51:55.298Z,-0.18
2024-03-09T02:54:22.605Z,-0.19
2024-03-09T02:56:51.034Z,-0.21
2024-03-09T02:59:18.426Z,-0.25
2024-03-09T03:01:48.517Z,-0.30
2024-03-09T03:04:16.659Z,-0.32
2024-03-09T03:06:45.078Z,-0.30
2024-03-09T03:09:13.763Z,-0.29
2024-03-09T03:11:44.163Z,-0.24
2024-03-09T03:14:11.928Z,-0.16
2024-03-09T03:16:39.375Z,-0.15
2024-03-09T03:19:08.938Z,-0.15
2024-03-09T03:21:41.524Z,-0.17
2024-03-09T03:24:10.719Z,-0.15
2024-03-09T03:26:38.296Z,-0.14
2024-03-09T03:29:06.008Z,-0.16
2024-03-09T03:31:33.715Z,-0.14
2024-03-09T03:34:02.385Z,-0.11
2024-03-09T03:36:29.901Z,-0.07
2024-03-09T03:38:57.062Z,-0.08
2024-03-09T03:41:24.668Z,-0.09
2024-03-09T03:43:52.367Z,-0.12
2024-03-09T03:46:19.695Z,-0.13
2024-03-09T03:48:47.976Z,-0.15
2024-03-09T03:51:17.199Z,-0.18
2024-03-09T03:53:46.267Z,-0.23
2024-03-09T03:56:15.015Z,-0.22
2024-03-09T03:58:53.217Z,-0.19
2024-03-09T04:01:20.186Z,-0.20
2024-03-09T04:03:48.454Z,-0.22
2024-03-09T04:06:15.336Z,-0.25
2024-03-09T04:08:42.248Z,-0.29
2024-03-09T04:11:09.568Z,-0.37
2024-03-09T04:13:36.732Z,-0.44
2024-03-09T04:16:03.782Z,-0.50
2024-03-09T04:18:31.897Z,-0.53
2024-03-09T04:20:59.317Z,-0.52
2024-03-09T04:23:26.536Z,-0.50
2024-03-09T04:26:00.013Z,-0.47
2024-03-09T04:28:29.834Z,-0.48
2024-03-09T04:30:59.598Z,-0.48
2024-03-09T04:33:27.762Z,-0.50
2024-03-09T04:35:55.418Z,-0.53
2024-03-09T04:38:22.540Z,-0.60
2024-03-09T04:40:52.901Z,-0.67
2024-03-09T04:43:20.002Z,-0.69
2024-03-09T04:45:47.530Z,-0.68
2024-03-09T04:48:17.774Z,-0.66
2024-03-09T04:50:49.557Z,-0.59
2024-03-09T04:53:18.504Z,-0.52
2024-03-09T04:55:50.737Z,-0.46
2024-03-09T04:58:19.880Z,-0.46
2024-03-09T05:00:47.789Z,-0.47
2024-03-09T05:03:15.757Z,-0.48
2024-03-09T05:05:44.619Z,-0.48
2024-03-09T05:08:12.382Z,-0.49
2024-03-09T05:10:39.668Z,-0.47
2024-03-09T05:13:08.801Z,-0.45
2024-03-09T05:15:37.499Z,-0.41
2024-03-09T05:18:11.123Z,-0.34
2024-03-09T05:20:38.836Z,-0.33
2024-03-09T05:23:13.229Z,-0.34
2024-03-09T05:25:43.778Z,-0.38
2024-03-09T05:28:15.902Z,-0.44
2024-03-09T05:30:45.280Z,-0.48
2024-03-09T05:33:13.757Z,-0.51
2024-03-09T05:35:41.328Z,-0.54
2024-03-09T05:38:10.931Z,-0.51
2024-03-09T05:40:39.025Z,-0.49
2024-03-09T05:43:09.672Z,-0.52
2024-03-09T05:45:38.411Z,-0.55
2024-03-09T05:48:07.004Z,-0.59
2024-03-09T05:50:36.265Z,-0.61
2024-03-09T05:53:03.759Z,-0.62
2024-03-09T05:55:31.374Z,-0.71
2024-03-09T05:57:59.361Z,-0.73
2024-03-09T06:00:29.720Z,-0.71
2024-03-09T06:02:58.920Z,-0.67
2024-03-09T06:05:33.375Z,-0.65
2024-03-09T06:08:03.832Z,-0.59
2024-03-09T06:10:31.882Z,-0.54
2024-03-09T06:12:59.088Z,-0.52
2024-03-09T06:15:27.144Z,-0.51
2024-03-09T06:17:58.421Z,-0.50
2024-03-09T06:20:30.417Z,-0.49
2024-03-09T06:22:58.782Z,-0.47
2024-03-09T06:25:31.627Z,-0.45
2024-03-09T06:28:09.424Z,-0.46
2024-03-09T06:30:39.676Z,-0.45
2024-03-09T06:33:06.565Z,-0.43
2024-03-09T06:35:34.239Z,-0.47
2024-03-09T06:38:11.973Z,-0.49
2024-03-09T06:40:42.945Z,-0.52
2024-03-09T06:43:12.023Z,-0.52
2024-03-09T06:45:40.815Z,-0.52
2024-03-09T06:48:09.021Z,-0.50
2024-03-09T06:50:37.910Z,-0.47
2024-03-09T06:53:05.315Z,-0.46
2024-03-09T06:55:32.732Z,-0.46
2024-03-09T06:58:05.491Z,-0.46
2024-03-09T07:00:38.759Z,-0.50
2024-03-09T07:03:07.080Z,-0.52
2024-03-09T07:05:39.142Z,-0.52
2024-03-09T07:08:11.640Z,-0.51
2024-03-09T07:10:39.409Z,-0.47
2024-03-09T07:13:06.644Z,-0.41
2024-03-09T07:15:34.164Z,-0.38
2024-03-09T07:18:02.297Z,-0.41
2024-03-09T07:20:30.399Z,-0.45
2024-03-09T07:22:58.102Z,-0.46
2024-03-09T07:25:28.784Z,-0.50
2024-03-09T07:27:58.017Z,-0.53
2024-03-09T07:30:26.261Z,-0.53
2024-03-09T07:32:55.670Z,-0.50
2024-03-09T07:35:29.229Z,-0.45
2024-03-09T07:38:00.640Z,-0.39
2024-03-09T07:40:33.665Z,-0.37
2024-03-09T07:43:01.210Z,-0.33
2024-03-09T07:45:29.674Z,-0.34
2024-03-09T07:47:57.008Z,-0.37
2024-03-09T07:50:24.868Z,-0.37
2024-03-09T07:52:54.775Z,-0.36
2024-03-09T07:55:24.766Z,-0.35
2024-03-09T07:58:08.241Z,-0.34
2024-03-09T08:00:41.536Z,-0.31
2024-03-09T08:03:08.722Z,-0.39
2024-03-09T08:05:35.856Z,-0.43
2024-03-09T08:08:10.419Z,-0.43
2024-03-09T08:10:54.369Z,-0.41
2024-03-09T08:13:24.964Z,-0.41
2024-03-09T08:15:54.331Z,-0.45
2024-03-09T08:18:23.426Z,-0.48
2024-03-09T08:20:51.179Z,-0.48
2024-03-09T08:23:19.043Z,-0.48
2024-03-09T08:25:46.627Z,-0.44
2024-03-09T08:28:14.349Z,-0.38
2024-03-09T08:30:42.393Z,-0.33
2024-03-09T08:33:11.054Z,-0.29
2024-03-09T08:35:38.338Z,-0.26
2024-03-09T08:38:05.981Z,-0.27
2024-03-09T08:40:33.401Z,-0.26
2024-03-09T08:43:00.603Z,-0.24
2024-03-09T08:45:28.916Z,-0.22
2024-03-09T08:47:56.195Z,-0.21
2024-03-09T08:50:24.692Z,-0.19
2024-03-09T08:52:52.029Z,-0.16
2024-03-09T08:55:20.266Z,-0.12
2024-03-09T08:57:50.316Z,-0.08
2024-03-09T09:00:26.721Z,-0.03
2024-03-09T09:02:58.711Z,-0.05
2024-03-09T09:05:29.148Z,-0.04
2024-03-09T09:07:57.413Z,-0.07
2024-03-09T09:10:27.211Z,-0.06
2024-03-09T09:12:55.987Z,-0.04
2024-03-09T09:15:26.535Z,-0.02
2024-03-09T09:17:55.408Z,0.05
2024-03-09T09:20:22.748Z,0.13
2024-03-09T09:22:50.879Z,0.14
2024-03-09T09:25:28.603Z,0.15
2024-03-09T09:27:58.391Z,0.20
2024-03-09T09:30:27.889Z,0.23
2024-03-09T09:32:54.865Z,0.19
2024-03-09T09:35:22.168Z,0.15
2024-03-09T09:37:49.177Z,0.10
2024-03-09T09:40:17.479Z,0.07
2024-03-09T09:42:46.334Z,0.09
2024-03-09T09:45:35.415Z,0.13
2024-03-09T09:48:03.361Z,0.20
2024-03-09T09:50:36.461Z,0.24
2024-03-09T09:53:09.897Z,0.32
2024-03-09T09:55:37.930Z,0.41
2024-03-09T09:58:07.856Z,0.47
2024-03-09T10:00:34.815Z,0.47
2024-03-09T10:03:02.805Z,0.44
2024-03-09T10:05:30.289Z,0.43
2024-03-09T10:08:02.717Z,0.45
2024-03-09T10:10:36.859Z,0.48
2024-03-09T10:13:14.169Z,0.51
2024-03-09T10:15:44.869Z,0.61
2024-03-09T10:18:16.996Z,0.68
2024-03-09T10:20:44.563Z,0.74
2024-03-09T10:23:15.482Z,0.78
2024-03-09T10:25:43.312Z,0.79
2024-03-09T10:28:11.944Z,0.80
2024-03-09T10:30:40.208Z,0.83
2024-03-09T10:33:17.985Z,0.80
2024-03-09T10:35:48.316Z,0.76
2024-03-09T10:38:19.111Z,0.77
2024-03-09T10:40:46.590Z,0.81
2024-03-09T10:43:15.595Z,0.86
2024-03-09T10:45:43.203Z,0.87
2024-03-09T10:48:11.368Z,0.90
2024-03-09T10:50:56.551Z,0.94
2024-03-09T10:53:23.410Z,0.93
2024-03-09T10:56:07.533Z,0.88
2024-03-09T10:58:39.212Z,0.84
2024-03-09T11:01:09.461Z,0.84
2024-03-09T11:03:38.042Z,0.86
2024-03-09T11:06:05.023Z,0.88
2024-03-09T11:08:34.267Z,0.92
2024-03-09T11:11:03.563Z,0.97
2024-03-09T11:13:32.430Z,1.01
2024-03-09T11:16:00.311Z,1.03
2024-03-09T11:18:27.376Z,0.98
2024-03-09T11:21:01.741Z,0.97
2024-03-09T11:23:34.505Z,0.96
2024-03-09T11:26:04.678Z,0.93
2024-03-09T11:28:52.229Z,0.93
2024-03-09T11:31:27.685Z,0.96
2024-03-09T11:34:23.729Z,1.01
2024-03-09T11:36:53.414Z,1.06
2024-03-09T11:39:23.604Z,1.10
2024-03-09T11:41:52.519Z,1.12
2024-03-09T11:44:23.895Z,1.15
2024-03-09T11:46:52.432Z,1.16
2024-03-09T11:49:19.554Z,1.15
2024-03-09T11:51:49.540Z,1.15
2024-03-09T11:54:20.413Z,1.16
2024-03-09T11:56:47.648Z,1.17
2024-03-09T11:59:17.013Z,1.19
2024-03-09T12:01:45.012Z,1.19
2024-03-09T12:04:12.499Z,1.20
2024-03-09T12:06:43.984Z,1.26
2024-03-09T12:09:15.272Z,1.31
2024-03-09T12:11:47.846Z,1.35
2024-03-09T12:14:16.807Z,1.35
2024-03-09T12:16:46.740Z,1.37
2024-03-09T12:19:15.676Z,1.38
2024-03-09T12:21:44.388Z,1.38
2024-03-09T12:24:14.088Z,1.36
2024-03-09T12:26:42.738Z,1.31
2024-03-09T12:29:14.478Z,1.28
2024-03-09T12:31:42.441Z,1.27
2024-03-09T12:34:12.158Z,1.24
2024-03-09T12:36:51.116Z,1.20
2024-03-09T12:39:19.269Z,1.19
2024-03-09T12:41:55.298Z,1.22
2024-03-09T12:44:23.674Z,1.24
2024-03-09T12:46:50.999Z,1.28
2024-03-09T12:49:20.128Z,1.31
2024-03-09T12:51:50.147Z,1.32
2024-03-09T12:54:18.640Z,1.31
2024-03-09T12:56:54.171Z,1.30
2024-03-09T12:59:28.090Z,1.30
2024-03-09T13:01:56.292Z,1.28
2024-03-09T13:04:28.366Z,1.27
2024-03-09T13:06:58.529Z,1.25
2024-03-09T13:09:34.372Z,1.24
2024-03-09T13:12:04.312Z,1.21
2024-03-09T13:14:35.632Z,1.20
2024-03-09T13:17:04.383Z,1.18
2024-03-09T13:19:31.673Z,1.23
2024-03-09T13:22:01.326Z,1.28
2024-03-09T13:24:29.127Z,1.36
2024-03-09T13:26:57.460Z,1.40
2024-03-09T13:29:30.488Z,1.43
2024-03-09T13:31:59.963Z,1.45
2024-03-09T13:34:32.052Z,1.46
2024-03-09T13:37:00.658Z,1.43
2024-03-09T13:39:36.795Z,1.43
2024-03-09T13:42:10.716Z,1.42
2024-03-09T13:44:38.668Z,1.41
2024-03-09T13:47:07.079Z,1.42
2024-03-09T13:49:34.625Z,1.41
2024-03-09T13:52:02.020Z,1.39
2024-03-09T13:54:30.492Z,1.38
2024-03-09T13:56:57.642Z,1.34
2024-03-09T13:59:25.242Z,1.33
2024-03-09T14:01:52.634Z,1.37
2024-03-09T14:04:24.012Z,1.42
2024-03-09T14:07:06.577Z,1.46
2024-03-09T14:09:47.033Z,1.48
2024-03-09T14:12:17.223Z,1.47
2024-03-09T14:14:44.165Z,1.47
2024-03-09T14:17:11.170Z,1.49
2024-03-09T14:19:40.636Z,1.50
2024-03-09T14:22:12.711Z,1.49
2024-03-09T14:24:39.708Z,1.45
2024-03-09T14:27:09.918Z,1.43
2024-03-09T14:29:37.477Z,1.43
2024-03-09T14:32:07.757Z,1.42
2024-03-09T14:34:36.414Z,1.38
2024-03-09T14:37:03.865Z,1.34
2024-03-09T14:39:32.314Z,1.36
2024-03-09T14:41:59.300Z,1.43
2024-03-09T14:44:26.280Z,1.49
2024-03-09T14:46:53.385Z,1.53
2024-03-09T14:49:20.669Z,1.55
2024-03-09T14:51:48.467Z,1.57
2024-03-09T14:54:18.733Z,1.62
2024-03-09T14:56:47.836Z,1.62
2024-03-09T14:59:15.121Z,1.61
2024-03-09T15:01:44.840Z,1.57
2024-03-09T15:04:16.344Z,1.53
2024-03-09T15:06:43.376Z,1.49
2024-03-09T15:09:22.264Z,1.46
2024-03-09T15:11:53.956Z,1.44
2024-03-09T15:14:24.665Z,1.39
2024-03-09T15:16:51.902Z,1.36
2024-03-09T15:19:20.081Z,1.33
2024-03-09T15:21:47.100Z,1.33
2024-03-09T15:24:14.034Z,1.31
2024-03-09T15:26:44.625Z,1.30
2024-03-09T15:29:15.733Z,1.29
2024-03-09T15:31:45.564Z,1.30
2024-03-09T15:34:12.627Z,1.33
2024-03-09T15:36:40.839Z,1.38
2024-03-09T15:39:10.740Z,1.40
2024-03-09T15:41:37.721Z,1.40
2024-03-09T15:44:07.921Z,1.40
2024-03-09T15:46:37.265Z,1.40
2024-03-09T15:49:07.431Z,1.40
2024-03-09T15:51:37.204Z,1.40
2024-03-09T15:54:05.082Z,1.39
2024-03-09T15:56:34.668Z,1.38
2024-03-09T15:59:06.032Z,1.35
2024-03-09T16:01:36.909Z,1.31
2024-03-09T16:04:11.632Z,1.28
2024-03-09T16:06:48.374Z,1.27
2024-03-09T16:09:16.008Z,1.20
2024-03-09T16:11:43.544Z,1.14
2024-03-09T16:14:14.119Z,1.13
2024-03-09T16:16:41.761Z,1.13
2024-03-09T16:19:08.734Z,1.13
2024-03-09T16:21:38.526Z,1.14
2024-03-09T16:24:08.696Z,1.13
2024-03-09T16:26:36.121Z,1.12
2024-03-09T16:29:03.843Z,1.09
2024-03-09T16:31:37.328Z,1.08
2024-03-09T16:34:08.292Z,1.06
2024-03-09T16:36:35.739Z,1.05
2024-03-09T16:39:02.864Z,1.04
2024-03-09T16:41:30.202Z,1.03
2024-03-09T16:43:57.623Z,1.02
2024-03-09T16:46:25.277Z,1.00
2024-03-09T16:48:53.995Z,0.96
2024-03-09T16:51:22.568Z,0.93
2024-03-09T16:53:54.899Z,0.92
2024-03-09T16:56:22.277Z,0.90
2024-03-09T16:58:50.408Z,0.85
2024-03-09T17:01:17.681Z,0.82
2024-03-09T17:03:44.795Z,0.84
2024-03-09T17:06:17.238Z,0.87
2024-03-09T17:08:45.772Z,0.92
2024-03-09T17:11:15.593Z,0.94
2024-03-09T17:13:48.643Z,0.94
2024-03-09T17:16:19.118Z,0.93
2024-03-09T17:18:50.088Z,0.92
2024-03-09T17:21:18.393Z,0.89
2024-03-09T17:23:46.430Z,0.86
2024-03-09T17:26:14.299Z,0.85
2024-03-09T17:28:41.256Z,0.83
2024-03-09T17:31:11.010Z,0.78
2024-03-09T17:33:40.701Z,0.73
2024-03-09T17:36:07.953Z,0.68
2024-03-09T17:38:35.033Z,0.65
2024-03-09T17:41:03.230Z,0.62
2024-03-09T17:43:30.724Z,0.57
2024-03-09T17:45:57.878Z,0.54
2024-03-09T17:48:24.810Z,0.57
2024-03-09T17:50:52.037Z,0.62
2024-03-09T17:53:18.947Z,0.67
2024-03-09T17:55:48.544Z,0.71
2024-03-09T17:58:15.771Z,0.69
2024-03-09T18:00:42.663Z,0.67
2024-03-09T18:03:15.589Z,0.67
2024-03-09T18:05:42.667Z,0.62
2024-03-09T18:08:10.458Z,0.58
2024-03-09T18:10:43.204Z,0.53
2024-03-09T18:13:12.900Z,0.50
2024-03-09T18:15:43.756Z,0.48
2024-03-09T18:18:12.608Z,0.45
2024-03-09T18:20:44.578Z,0.40
2024-03-09T18:23:12.762Z,0.37
2024-03-09T18:25:40.817Z,0.37
2024-03-09T18:28:09.036Z,0.40
2024-03-09T18:30:36.708Z,0.44
2024-03-09T18:33:08.205Z,0.49
2024-03-09T18:35:36.030Z,0.51
2024-03-09T18:38:04.571Z,0.50
2024-03-09T18:40:32.284Z,0.49
2024-03-09T18:43:00.359Z,0.48
2024-03-09T18:45:34.613Z,0.45
2024-03-09T18:48:03.220Z,0.43
2024-03-09T18:50:31.705Z,0.41
2024-03-09T18:52:59.668Z,0.37
2024-03-09T18:55:29.312Z,0.38
2024-03-09T18:57:56.837Z,0.35
2024-03-09T19:00:31.755Z,0.33
2024-03-09T19:03:00.508Z,0.31
2024-03-09T19:05:28.618Z,0.32
2024-03-09T19:08:03.033Z,0.35
2024-03-09T19:10:32.786Z,0.36
2024-03-09T19:13:03.441Z,0.35
2024-03-09T19:15:33.283Z,0.40
2024-03-09T19:18:01.129Z,0.45
2024-03-09T19:20:29.608Z,0.47
2024-03-09T19:22:57.099Z,0.44
2024-03-09T19:25:24.323Z,0.42
2024-03-09T19:27:53.395Z,0.40
2024-03-09T19:30:27.389Z,0.40
2024-03-09T19:32:57.774Z,0.37
2024-03-09T19:35:26.991Z,0.33
2024-03-09T19:37:59.285Z,0.29
2024-03-09T19:40:28.887Z,0.28
2024-03-09T19:42:56.655Z,0.28
2024-03-09T19:45:25.363Z,0.30
2024-03-09T19:47:53.184Z,0.31
2024-03-09T19:50:23.489Z,0.27
2024-03-09T19:52:51.667Z,0.26
2024-03-09T19:55:24.500Z,0.23
2024-03-09T19:57:51.585Z,0.20
2024-03-09T20:00:23.924Z,0.16
2024-03-09T20:02:52.904Z,0.12
2024-03-09T20:05:24.545Z,0.11
2024-03-09T20:07:56.096Z,0.11
2024-03-09T20:10:24.673Z,0.10
2024-03-09T20:12:54.625Z,0.07
2024-03-09T20:15:22.550Z,0.06
2024-03-09T20:17:51.928Z,0.07
2024-03-09T20:20:19.941Z,0.13
2024-03-09T20:22:59.130Z,0.21
2024-03-09T20:25:28.174Z,0.26
2024-03-09T20:27:56.503Z,0.28
2024-03-09T20:30:23.998Z,0.29
2024-03-09T20:32:51.979Z,0.31
2024-03-09T20:35:19.762Z,0.31
2024-03-09T20:37:48.195Z,0.26
2024-03-09T20:40:20.392Z,0.23
2024-03-09T20:42:52.438Z,0.18
2024-03-09T20:45:21.893Z,0.13
2024-03-09T20:47:50.220Z,0.07
2024-03-09T20:50:22.184Z,0.03
2024-03-09T20:52:59.946Z,0.01
2024-03-09T20:55:28.875Z,0.05
2024-03-09T20:57:56.269Z,0.11
2024-03-09T21:00:24.197Z,0.16
2024-03-09T21:02:52.458Z,0.18
2024-03-09T21:05:20.126Z,0.19
2024-03-09T21:07:47.759Z,0.16
2024-03-09T21:10:15.111Z,0.11
2024-03-09T21:12:42.830Z,0.07
2024-03-09T21:15:10.803Z,0.05
2024-03-09T21:17:38.097Z,0.05
2024-03-09T21:20:13.147Z,0.04
2024-03-09T21:22:40.682Z,0.06
2024-03-09T21:25:12.200Z,0.07
2024-03-09T21:27:44.472Z,0.07
2024-03-09T21:30:15.049Z,0.00
2024-03-09T21:32:44.321Z,-0.05
2024-03-09T21:35:14.418Z,-0.06
2024-03-09T21:37:45.064Z,-0.05
2024-03-09T21:40:14.554Z,-0.08
2024-03-09T21:42:42.776Z,-0.14
2024-03-09T21:45:10.141Z,-0.18
2024-03-09T21:47:38.334Z,-0.21
2024-03-09T21:50:06.230Z,-0.21
2024-03-09T21:52:33.223Z,-0.17
2024-03-09T21:55:00.178Z,-0.16
2024-03-09T21:57:27.211Z,-0.19
2024-03-09T21:59:54.355Z,-0.21
2024-03-09T22:02:21.334Z,-0.24
2024-03-09T22:04:48.550Z,-0.27
2024-03-09T22:07:15.573Z,-0.31
2024-03-09T22:09:42.496Z,-0.34
2024-03-09T22:12:10.296Z,-0.38
2024-03-09T22:14:40.303Z,-0.41
2024-03-09T22:17:07.672Z,-0.43
2024-03-09T22:19:34.688Z,-0.43
2024-03-09T22:22:02.252Z,-0.39
2024-03-09T22:24:29.301Z,-0.36
2024-03-09T22:26:56.927Z,-0.32
2024-03-09T22:29:24.580Z,-0.31
2024-03-09T22:31:52.577Z,-0.31
2024-03-09T22:34:19.861Z,-0.33
2024-03-09T22:36:46.907Z,-0.36
2024-03-09T22:39:17.506Z,-0.42
2024-03-09T22:41:47.746Z,-0.46
2024-03-09T22:44:15.792Z,-0.47
2024-03-09T22:46:42.769Z,-0.47
2024-03-09T22:49:10.444Z,-0.43
2024-03-09T22:51:37.688Z,-0.42
2024-03-09T22:54:04.695Z,-0.44
2024-03-09T22:56:32.604Z,-0.43
2024-03-09T22:58:59.549Z,-0.45
2024-03-09T23:01:26.898Z,-0.49
2024-03-09T23:03:54.453Z,-0.51
2024-03-09T23:06:21.660Z,-0.55
2024-03-09T23:08:49.300Z,-0.58
2024-03-09T23:11:19.441Z,-0.59
2024-03-09T23:13:48.215Z,-0.57
2024-03-09T23:16:15.804Z,-0.54
2024-03-09T23:18:43.399Z,-0.55
2024-03-09T23:21:11.134Z,-0.54
2024-03-09T23:23:38.434Z,-0.56
2024-03-09T23:26:05.695Z,-0.60
2024-03-09T23:28:32.736Z,-0.62
2024-03-09T23:31:02.566Z,-0.63
2024-03-09T23:33:29.433Z,-0.67
2024-03-09T23:35:57.349Z,-0.69
2024-03-09T23:38:24.306Z,-0.69
2024-03-09T23:40:51.568Z,-0.70
2024-03-09T23:43:22.412Z,-0.75
2024-03-09T23:45:49.866Z,-0.77
2024-03-09T23:48:16.868Z,-0.81
2024-03-09T23:50:44.261Z,-0.84
2024-03-09T23:53:13.304Z,-0.87
2024-03-09T23:55:41.687Z,-0.90
2024-03-09T23:58:08.903Z,-0.93
